Time,TemperatureF,DewpointF,PressureIn,WindDirection,WindDirectionDegrees,WindSpeedMPH,WindSpeedGustMPH,Humidity,HourlyPrecipIn,Conditions,Clouds,dailyrainin,SoftwareType,DateUTC
2013-03-29 00:00:00,49.6,47.9,30.11,SW,224,0.0,0.0,94,0.00,,,0.00,Wunderground v.1.15,2013-03-29 07:00:00,
2013-03-29 00:10:00,49.6,48.2,30.11,SW,224,0.0,0.0,95,0.00,,,0.00,Wunderground v.1.15,2013-03-29 07:10:00,
2013-03-29 00:15:00,49.6,48.2,30.11,SW,224,0.0,0.0,95,0.00,,,0.00,Wunderground v.1.15,2013-03-29 07:15:00,
2013-03-29 00:25:00,49.6,48.2,30.11,SW,224,0.0,0.0,95,0.00,,,0.00,Wunderground v.1.15,2013-03-29 07:25:00,
2013-03-29 00:35:00,49.5,48.1,30.11,SW,224,0.0,0.0,95,0.00,,,0.00,Wunderground v.1.15,2013-03-29 07:35:00,
2013-03-29 00:45:00,49.5,48.1,30.11,SW,224,0.0,0.0,95,0.00,,,0.00,Wunderground v.1.15,2013-03-29 07:45:00,
2013-03-29 00:55:00,49.2,47.8,30.11,SW,224,0.0,0.0,95,0.00,,,0.00,Wunderground v.1.15,2013-03-29 07:55:00,
2013-03-29 01:05:00,49.1,47.7,30.11,SW,224,0.0,0.0,95,0.00,,,0.00,Wunderground v.1.15,2013-03-29 08:05:00,
2013-03-29 01:10:00,49.1,48.0,30.11,SW,224,0.0,0.0,96,0.00,,,0.00,Wunderground v.1.15,2013-03-29 08:10:00,
2013-03-29 01:15:00,49.1,48.0,30.11,SW,224,0.0,0.0,96,0.00,,,0.00,Wunderground v.1.15,2013-03-29 08:15:00,
2013-03-29 01:25:00,49.1,48.0,30.11,SW,224,0.0,0.0,96,0.00,,,0.00,Wunderground v.1.15,2013-03-29 08:25:00,
2013-03-29 01:35:00,49.1,48.0,30.11,SW,224,0.0,0.0,96,0.00,,,0.00,Wunderground v.1.15,2013-03-29 08:35:00,
2013-03-29 01:45:00,49.2,48.1,30.11,SW,224,0.0,0.0,96,0.00,,,0.00,Wunderground v.1.15,2013-03-29 08:45:00,
2013-03-29 01:55:00,49.1,48.0,30.12,SW,224,0.0,0.0,96,0.00,,,0.00,Wunderground v.1.15,2013-03-29 08:55:00,
2013-03-29 02:01:00,49.2,48.1,30.12,SW,224,0.0,0.0,96,0.00,,,0.00,Wunderground v.1.15,2013-03-29 09:01:00,
2013-03-29 02:10:00,49.2,48.1,30.12,SW,224,0.0,0.0,96,0.00,,,0.00,Wunderground v.1.15,2013-03-29 09:10:00,
2013-03-29 02:20:00,49.1,48.0,30.12,SW,224,0.0,0.0,96,0.00,,,0.00,Wunderground v.1.15,2013-03-29 09:20:00,
2013-03-29 02:31:00,49.1,48.0,30.12,SW,224,0.0,0.0,96,0.00,,,0.00,Wunderground v.1.15,2013-03-29 09:31:00,
2013-03-29 02:40:00,49.1,48.3,30.12,SW,224,0.0,0.0,97,0.00,,,0.00,Wunderground v.1.15,2013-03-29 09:40:00,
2013-03-29 02:45:00,49.1,48.3,30.12,SW,224,0.0,0.0,97,0.00,,,0.00,Wunderground v.1.15,2013-03-29 09:45:00,
2013-03-29 02:55:00,49.0,48.2,30.12,SW,224,0.0,0.0,97,0.00,,,0.00,Wunderground v.1.15,2013-03-29 09:55:00,
2013-03-29 03:00:00,49.0,48.2,30.12,SW,224,0.0,0.0,97,0.00,,,0.00,Wunderground v.1.15,2013-03-29 10:00:00,
2013-03-29 03:10:00,49.0,48.2,30.12,SW,224,0.0,0.0,97,0.00,,,0.00,Wunderground v.1.15,2013-03-29 10:10:00,
2013-03-29 03:20:00,48.9,48.1,30.12,SW,224,0.0,0.0,97,0.00,,,0.00,Wunderground v.1.15,2013-03-29 10:20:00,
2013-03-29 03:30:00,49.0,48.2,30.12,SW,224,0.0,0.0,97,0.00,,,0.00,Wunderground v.1.15,2013-03-29 10:30:00,
2013-03-29 03:40:00,49.0,48.2,30.12,SW,224,0.0,0.0,97,0.00,,,0.01,Wunderground v.1.15,2013-03-29 10:40:00,
2013-03-29 03:50:00,49.0,48.2,30.12,SW,224,0.0,0.0,97,0.00,,,0.01,Wunderground v.1.15,2013-03-29 10:50:00,
2013-03-29 04:01:00,49.0,48.2,30.12,SW,224,0.0,0.0,97,0.00,,,0.01,Wunderground v.1.15,2013-03-29 11:01:00,
2013-03-29 04:10:00,49.0,48.5,30.12,SW,224,0.0,0.0,98,0.00,,,0.01,Wunderground v.1.15,2013-03-29 11:10:00,
2013-03-29 04:20:00,49.0,48.5,30.12,SW,224,0.0,0.0,98,0.00,,,0.01,Wunderground v.1.15,2013-03-29 11:20:00,
2013-03-29 04:30:00,49.0,48.5,30.12,SW,224,0.0,0.0,98,0.00,,,0.01,Wunderground v.1.15,2013-03-29 11:30:00,
2013-03-29 04:35:00,49.0,48.5,30.12,SW,224,0.0,0.0,98,0.00,,,0.01,Wunderground v.1.15,2013-03-29 11:35:00,
2013-03-29 04:45:00,48.9,48.4,30.12,SW,224,0.0,0.0,98,0.00,,,0.01,Wunderground v.1.15,2013-03-29 11:45:00,
2013-03-29 04:55:00,48.9,48.4,30.12,SW,224,0.0,0.0,98,0.00,,,0.01,Wunderground v.1.15,2013-03-29 11:55:00,
2013-03-29 05:00:00,48.9,48.4,30.12,SW,224,0.0,0.0,98,0.00,,,0.01,Wunderground v.1.15,2013-03-29 12:00:00,
2013-03-29 05:10:00,48.9,48.4,30.12,SW,224,0.0,0.0,98,0.00,,,0.01,Wunderground v.1.15,2013-03-29 12:10:00,
2013-03-29 05:20:00,48.9,48.4,30.13,SW,224,0.0,0.0,98,0.00,,,0.01,Wunderground v.1.15,2013-03-29 12:20:00,
2013-03-29 05:30:00,48.9,48.4,30.13,SW,224,0.0,0.0,98,0.00,,,0.01,Wunderground v.1.15,2013-03-29 12:30:00,
2013-03-29 05:40:00,48.9,48.4,30.13,SW,224,0.0,0.0,98,0.00,,,0.01,Wunderground v.1.15,2013-03-29 12:40:00,
2013-03-29 05:50:00,48.9,48.4,30.13,SW,224,0.0,0.0,98,0.00,,,0.02,Wunderground v.1.15,2013-03-29 12:50:00,
2013-03-29 06:00:00,48.9,48.4,30.13,SW,224,0.0,0.0,98,0.00,,,0.02,Wunderground v.1.15,2013-03-29 13:00:00,
2013-03-29 06:10:00,48.9,48.4,30.13,SW,224,0.0,0.0,98,0.00,,,0.02,Wunderground v.1.15,2013-03-29 13:10:00,
2013-03-29 06:20:00,48.9,48.4,30.13,SW,224,0.0,0.0,98,0.00,,,0.02,Wunderground v.1.15,2013-03-29 13:20:00,
2013-03-29 06:30:00,48.9,48.4,30.13,SW,224,0.0,0.0,98,0.00,,,0.02,Wunderground v.1.15,2013-03-29 13:30:00,
2013-03-29 06:40:00,48.9,48.4,30.13,SW,224,0.0,0.0,98,0.00,,,0.02,Wunderground v.1.15,2013-03-29 13:40:00,
2013-03-29 06:50:00,48.9,48.4,30.13,SW,224,0.0,0.0,98,0.00,,,0.02,Wunderground v.1.15,2013-03-29 13:50:00,
2013-03-29 06:55:00,48.9,48.4,30.13,SW,224,0.0,0.0,98,0.00,,,0.02,Wunderground v.1.15,2013-03-29 13:55:00,
2013-03-29 07:05:00,48.9,48.4,30.13,SW,224,0.0,0.0,98,0.00,,,0.02,Wunderground v.1.15,2013-03-29 14:05:00,
2013-03-29 07:10:00,48.8,48.3,30.13,SW,224,0.0,0.0,98,0.00,,,0.02,Wunderground v.1.15,2013-03-29 14:10:00,
2013-03-29 07:15:00,48.9,48.4,30.13,SW,224,0.0,0.0,98,0.00,,,0.02,Wunderground v.1.15,2013-03-29 14:15:00,
2013-03-29 07:25:00,49.0,48.5,30.13,SW,224,0.0,0.0,98,0.00,,,0.02,Wunderground v.1.15,2013-03-29 14:25:00,
2013-03-29 07:35:00,49.1,48.8,30.13,SW,224,0.0,0.0,99,0.00,,,0.02,Wunderground v.1.15,2013-03-29 14:35:00,
2013-03-29 07:45:00,49.2,48.7,30.13,SW,224,0.0,0.0,98,0.00,,,0.02,Wunderground v.1.15,2013-03-29 14:45:00,
2013-03-29 07:55:00,49.3,48.8,30.13,SW,224,0.0,0.0,98,0.00,,,0.02,Wunderground v.1.15,2013-03-29 14:55:00,
2013-03-29 08:00:00,49.4,48.9,30.13,SW,224,0.0,0.0,98,0.00,,,0.02,Wunderground v.1.15,2013-03-29 15:00:00,
2013-03-29 08:10:00,49.6,49.1,30.13,SW,224,0.0,0.0,98,0.00,,,0.02,Wunderground v.1.15,2013-03-29 15:10:00,
2013-03-29 08:20:00,49.7,49.4,30.13,SW,224,0.0,0.0,99,0.00,,,0.02,Wunderground v.1.15,2013-03-29 15:20:00,
2013-03-29 08:30:00,49.9,49.4,30.13,SW,224,0.0,0.0,98,0.00,,,0.02,Wunderground v.1.15,2013-03-29 15:30:00,
2013-03-29 08:40:00,50.0,49.5,30.14,NNW,329,0.0,0.0,98,0.00,,,0.02,Wunderground v.1.15,2013-03-29 15:40:00,
2013-03-29 08:50:00,50.2,49.7,30.14,NNW,329,0.0,0.0,98,0.00,,,0.02,Wunderground v.1.15,2013-03-29 15:50:00,
2013-03-29 09:01:00,50.7,50.2,30.14,NNW,329,0.0,0.0,98,0.00,,,0.02,Wunderground v.1.15,2013-03-29 16:01:00,
2013-03-29 09:10:00,51.2,50.4,30.14,NW,304,0.0,0.0,97,0.00,,,0.02,Wunderground v.1.15,2013-03-29 16:10:00,
2013-03-29 09:20:00,51.9,51.1,30.13,NNW,332,0.0,0.0,97,0.00,,,0.02,Wunderground v.1.15,2013-03-29 16:20:00,
2013-03-29 09:25:00,52.4,51.3,30.14,NW,304,0.0,1.0,96,0.00,,,0.02,Wunderground v.1.15,2013-03-29 16:25:00,
2013-03-29 09:35:00,53.2,51.8,30.14,NW,317,1.0,1.0,95,0.00,,,0.02,Wunderground v.1.15,2013-03-29 16:35:00,
2013-03-29 09:45:00,54.7,52.1,30.14,ESE,112,0.0,0.0,91,0.00,,,0.02,Wunderground v.1.15,2013-03-29 16:45:00,
2013-03-29 09:55:00,54.7,52.1,30.14,SSE,163,0.0,0.0,91,0.00,,,0.02,Wunderground v.1.15,2013-03-29 16:55:00,
2013-03-29 10:00:00,55.1,52.2,30.14,NNE,12,0.0,2.0,90,0.00,,,0.02,Wunderground v.1.15,2013-03-29 17:00:00,
2013-03-29 10:10:00,55.8,52.3,30.14,North,360,1.0,1.0,88,0.00,,,0.02,Wunderground v.1.15,2013-03-29 17:10:00,
2013-03-29 10:20:00,56.1,52.6,30.14,NNW,338,1.0,1.0,88,0.00,,,0.02,Wunderground v.1.15,2013-03-29 17:20:00,
2013-03-29 10:25:00,56.4,53.5,30.14,NNW,338,1.0,1.0,90,0.00,,,0.02,Wunderground v.1.15,2013-03-29 17:25:00,
2013-03-29 10:35:00,57.2,53.0,30.14,North,355,1.0,3.0,86,0.00,,,0.02,Wunderground v.1.15,2013-03-29 17:35:00,
2013-03-29 10:45:00,58.4,53.6,30.13,North,355,1.0,2.0,84,0.00,,,0.02,Wunderground v.1.15,2013-03-29 17:45:00,
2013-03-29 10:55:00,59.2,54.4,30.13,NNE,19,1.0,1.0,84,0.00,,,0.02,Wunderground v.1.15,2013-03-29 17:55:00,
2013-03-29 11:05:00,59.8,54.3,30.13,NNE,17,1.0,1.0,82,0.00,,,0.02,Wunderground v.1.15,2013-03-29 18:05:00,
2013-03-29 11:15:00,60.2,54.7,30.13,NNE,13,1.0,1.0,82,0.00,,,0.02,Wunderground v.1.15,2013-03-29 18:15:00,
2013-03-29 11:26:00,60.7,54.8,30.13,NW,325,1.0,4.0,81,0.00,,,0.02,Wunderground v.1.15,2013-03-29 18:26:00,
2013-03-29 11:35:00,61.5,54.9,30.13,NW,309,1.0,2.0,79,0.00,,,0.02,Wunderground v.1.15,2013-03-29 18:35:00,
2013-03-29 11:40:00,62.0,55.1,30.12,NW,319,1.0,2.0,78,0.00,,,0.02,Wunderground v.1.15,2013-03-29 18:40:00,
2013-03-29 11:50:00,62.9,55.6,30.12,East,94,1.0,1.0,77,0.00,,,0.02,Wunderground v.1.15,2013-03-29 18:50:00,
2013-03-29 12:00:00,63.6,55.9,30.12,North,355,1.0,1.0,76,0.00,,,0.02,Wunderground v.1.15,2013-03-29 19:00:00,
2013-03-29 12:10:00,63.9,55.1,30.12,South,174,1.0,1.0,73,0.00,,,0.02,Wunderground v.1.15,2013-03-29 19:10:00,
2013-03-29 12:15:00,64.5,55.3,30.12,NNW,334,1.0,1.0,72,0.00,,,0.02,Wunderground v.1.15,2013-03-29 19:15:00,
2013-03-29 12:20:00,65.1,55.5,30.11,North,360,1.0,2.0,71,0.00,,,0.02,Wunderground v.1.15,2013-03-29 19:20:00,
2013-03-29 12:30:00,65.6,55.5,30.11,North,360,1.0,2.0,70,0.00,,,0.02,Wunderground v.1.15,2013-03-29 19:30:00,
2013-03-29 12:35:00,65.8,55.3,30.11,NNE,16,1.0,2.0,69,0.00,,,0.02,Wunderground v.1.15,2013-03-29 19:35:00,
2013-03-29 12:40:00,66.1,54.4,30.11,North,360,1.0,1.0,66,0.00,,,0.02,Wunderground v.1.15,2013-03-29 19:40:00,
2013-03-29 12:50:00,66.8,54.7,30.10,NW,313,1.0,2.0,65,0.00,,,0.02,Wunderground v.1.15,2013-03-29 19:50:00,
2013-03-29 12:55:00,67.4,54.4,30.10,NNW,348,1.0,2.0,63,0.00,,,0.02,Wunderground v.1.15,2013-03-29 19:55:00,
2013-03-29 13:01:00,67.4,53.0,30.10,WNW,290,2.0,2.0,60,0.00,,,0.02,Wunderground v.1.15,2013-03-29 20:01:00,
2013-03-29 13:10:00,67.3,53.8,30.10,North,355,1.0,3.0,62,0.00,,,0.02,Wunderground v.1.15,2013-03-29 20:10:00,
2013-03-29 13:20:00,68.0,55.8,30.10,NNW,346,2.0,4.0,65,0.00,,,0.02,Wunderground v.1.15,2013-03-29 20:20:00,
2013-03-29 13:30:00,68.3,55.2,30.10,North,350,2.0,3.0,63,0.00,,,0.02,Wunderground v.1.15,2013-03-29 20:30:00,
2013-03-29 13:40:00,68.9,56.6,30.10,North,355,1.0,3.0,65,0.00,,,0.02,Wunderground v.1.15,2013-03-29 20:40:00,
2013-03-29 13:50:00,69.2,53.8,30.10,NW,310,1.0,1.0,58,0.00,,,0.02,Wunderground v.1.15,2013-03-29 20:50:00,
2013-03-29 14:01:00,69.2,53.8,30.09,West,267,3.0,3.0,58,0.00,,,0.02,Wunderground v.1.15,2013-03-29 21:01:00,
2013-03-29 14:10:00,69.0,53.6,30.09,NNW,336,2.0,4.0,58,0.00,,,0.02,Wunderground v.1.15,2013-03-29 21:10:00,
2013-03-29 14:20:00,69.1,54.2,30.09,NNW,341,2.0,3.0,59,0.00,,,0.02,Wunderground v.1.15,2013-03-29 21:20:00,
2013-03-29 14:30:00,68.8,55.2,30.09,WNW,292,3.0,4.0,62,0.00,,,0.02,Wunderground v.1.15,2013-03-29 21:30:00,
2013-03-29 14:40:00,69.2,56.5,30.08,West,261,2.0,6.0,64,0.00,,,0.02,Wunderground v.1.15,2013-03-29 21:40:00,
2013-03-29 14:45:00,69.8,54.8,30.08,NNW,336,2.0,2.0,59,0.00,,,0.02,Wunderground v.1.15,2013-03-29 21:45:00,
2013-03-29 14:55:00,69.5,55.9,30.08,NNW,329,2.0,5.0,62,0.00,,,0.02,Wunderground v.1.15,2013-03-29 21:55:00,
2013-03-29 15:05:00,69.7,55.2,30.08,WNW,298,3.0,5.0,60,0.00,,,0.02,Wunderground v.1.15,2013-03-29 22:05:00,
2013-03-29 15:15:00,69.9,54.4,30.07,WNW,283,3.0,3.0,58,0.00,,,0.02,Wunderground v.1.15,2013-03-29 22:15:00,
2013-03-29 15:20:00,69.9,55.4,30.07,WSW,258,3.0,3.0,60,0.00,,,0.02,Wunderground v.1.15,2013-03-29 22:20:00,
2013-03-29 15:25:00,69.8,53.9,30.07,NNW,343,4.0,5.0,57,0.00,,,0.02,Wunderground v.1.15,2013-03-29 22:25:00,
2013-03-29 15:35:00,70.3,54.8,30.07,WSW,258,3.0,6.0,58,0.00,,,0.02,Wunderground v.1.15,2013-03-29 22:35:00,
2013-03-29 15:46:00,70.7,55.2,30.07,NW,317,2.0,2.0,58,0.00,,,0.02,Wunderground v.1.15,2013-03-29 22:46:00,
2013-03-29 15:55:00,70.5,55.0,30.07,NNW,340,3.0,3.0,58,0.00,,,0.02,Wunderground v.1.15,2013-03-29 22:55:00,
2013-03-29 16:01:00,70.3,55.8,30.07,West,281,2.0,6.0,60,0.00,,,0.02,Wunderground v.1.15,2013-03-29 23:01:00,
2013-03-29 16:10:00,70.0,55.9,30.07,WSW,254,2.0,6.0,61,0.00,,,0.02,Wunderground v.1.15,2013-03-29 23:10:00,
2013-03-29 16:20:00,69.8,56.6,30.06,West,277,2.0,3.0,63,0.00,,,0.02,Wunderground v.1.15,2013-03-29 23:20:00,
2013-03-29 16:30:00,69.3,56.6,30.06,North,355,2.0,3.0,64,0.00,,,0.02,Wunderground v.1.15,2013-03-29 23:30:00,
2013-03-29 16:40:00,68.7,55.6,30.06,NNW,348,2.0,2.0,63,0.00,,,0.02,Wunderground v.1.15,2013-03-29 23:40:00,
2013-03-29 16:50:00,67.8,55.6,30.06,SW,234,2.0,5.0,65,0.00,,,0.02,Wunderground v.1.15,2013-03-29 23:50:00,
2013-03-29 17:01:00,67.3,55.1,30.06,NNW,348,2.0,2.0,65,0.00,,,0.02,Wunderground v.1.15,2013-03-30 00:01:00,
2013-03-29 17:10:00,66.6,53.6,30.06,NW,321,1.0,2.0,63,0.00,,,0.02,Wunderground v.1.15,2013-03-30 00:10:00,
2013-03-29 17:20:00,65.3,54.5,30.06,NW,308,2.0,2.0,68,0.00,,,0.02,Wunderground v.1.15,2013-03-30 00:20:00,
2013-03-29 17:30:00,64.5,54.5,30.06,WNW,300,1.0,1.0,70,0.00,,,0.02,Wunderground v.1.15,2013-03-30 00:30:00,
2013-03-29 17:35:00,63.9,54.3,30.07,West,279,1.0,1.0,71,0.00,,,0.02,Wunderground v.1.15,2013-03-30 00:35:00,
2013-03-29 17:45:00,62.9,53.7,30.07,WNW,284,1.0,2.0,72,0.00,,,0.02,Wunderground v.1.15,2013-03-30 00:45:00,
2013-03-29 17:55:00,61.9,52.8,30.07,NNW,341,2.0,2.0,72,0.00,,,0.02,Wunderground v.1.15,2013-03-30 00:55:00,
2013-03-29 18:05:00,61.1,52.7,30.07,NW,319,2.0,5.0,74,0.00,,,0.02,Wunderground v.1.15,2013-03-30 01:05:00,
2013-03-29 18:15:00,60.5,51.8,30.07,WNW,294,2.0,3.0,73,0.00,,,0.02,Wunderground v.1.15,2013-03-30 01:15:00,
2013-03-29 18:25:00,60.0,52.1,30.07,NNW,327,2.0,2.0,75,0.00,,,0.02,Wunderground v.1.15,2013-03-30 01:25:00,
2013-03-29 18:35:00,59.6,52.0,30.07,WNW,303,1.0,2.0,76,0.00,,,0.02,Wunderground v.1.15,2013-03-30 01:35:00,
2013-03-29 18:40:00,59.2,51.6,30.07,West,270,1.0,1.0,76,0.00,,,0.02,Wunderground v.1.15,2013-03-30 01:40:00,
2013-03-29 18:50:00,58.6,51.4,30.07,WSW,242,1.0,1.0,77,0.00,,,0.02,Wunderground v.1.15,2013-03-30 01:50:00,
2013-03-29 19:05:00,58.1,50.9,30.07,NNW,338,1.0,1.0,77,0.00,,,0.02,Wunderground v.1.15,2013-03-30 02:05:00,
2013-03-29 19:10:00,58.0,50.8,30.07,West,272,1.0,5.0,77,0.00,,,0.02,Wunderground v.1.15,2013-03-30 02:10:00,
2013-03-29 19:20:00,57.9,51.1,30.07,WSW,247,1.0,2.0,78,0.00,,,0.02,Wunderground v.1.15,2013-03-30 02:20:00,
2013-03-29 19:25:00,57.7,50.9,30.07,SW,225,0.0,0.0,78,0.00,,,0.02,Wunderground v.1.15,2013-03-30 02:25:00,
2013-03-29 19:35:00,57.2,50.4,30.07,West,271,0.0,0.0,78,0.00,,,0.02,Wunderground v.1.15,2013-03-30 02:35:00,
2013-03-29 19:45:00,56.8,50.4,30.07,WNW,294,0.0,1.0,79,0.00,,,0.02,Wunderground v.1.15,2013-03-30 02:45:00,
2013-03-29 19:50:00,56.7,50.3,30.08,North,360,1.0,1.0,79,0.00,,,0.02,Wunderground v.1.15,2013-03-30 02:50:00,
2013-03-29 20:01:00,56.2,50.1,30.07,NNW,346,0.0,0.0,80,0.00,,,0.02,Wunderground v.1.15,2013-03-30 03:01:00,
2013-03-29 20:10:00,55.8,50.4,30.08,NNW,346,0.0,0.0,82,0.00,,,0.02,Wunderground v.1.15,2013-03-30 03:10:00,
2013-03-29 20:20:00,55.4,50.3,30.08,NNW,346,0.0,0.0,83,0.00,,,0.02,Wunderground v.1.15,2013-03-30 03:20:00,
2013-03-29 20:30:00,54.9,50.2,30.08,NNW,346,0.0,0.0,84,0.00,,,0.02,Wunderground v.1.15,2013-03-30 03:30:00,
2013-03-29 20:40:00,54.4,50.3,30.09,NNW,346,0.0,0.0,86,0.00,,,0.02,Wunderground v.1.15,2013-03-30 03:40:00,
2013-03-29 20:45:00,54.2,50.1,30.09,NNW,346,0.0,0.0,86,0.00,,,0.02,Wunderground v.1.15,2013-03-30 03:45:00,
2013-03-29 20:55:00,53.8,50.3,30.09,NNW,346,0.0,0.0,88,0.00,,,0.02,Wunderground v.1.15,2013-03-30 03:55:00,
2013-03-29 21:00:00,53.7,50.2,30.09,NNW,346,0.0,0.0,88,0.00,,,0.02,Wunderground v.1.15,2013-03-30 04:00:00,
2013-03-29 21:05:00,53.4,49.9,30.10,NNW,346,0.0,0.0,88,0.00,,,0.02,Wunderground v.1.15,2013-03-30 04:05:00,
2013-03-29 21:15:00,53.0,49.8,30.10,NNW,346,0.0,0.0,89,0.00,,,0.02,Wunderground v.1.15,2013-03-30 04:15:00,
2013-03-29 21:20:00,52.8,49.9,30.10,NNW,346,0.0,0.0,90,0.00,,,0.02,Wunderground v.1.15,2013-03-30 04:20:00,
2013-03-29 21:25:00,52.6,49.8,30.10,NNW,346,0.0,0.0,90,0.00,,,0.02,Wunderground v.1.15,2013-03-30 04:25:00,
2013-03-29 21:35:00,52.2,49.7,30.10,NNW,346,0.0,0.0,91,0.00,,,0.02,Wunderground v.1.15,2013-03-30 04:35:00,
2013-03-29 21:40:00,52.0,49.5,30.11,NNW,346,0.0,0.0,91,0.00,,,0.02,Wunderground v.1.15,2013-03-30 04:40:00,
2013-03-29 21:45:00,51.8,49.3,30.11,NNW,346,0.0,0.0,91,0.00,,,0.02,Wunderground v.1.15,2013-03-30 04:45:00,
2013-03-29 21:50:00,51.7,49.5,30.11,NNW,346,0.0,0.0,92,0.00,,,0.02,Wunderground v.1.15,2013-03-30 04:50:00,
2013-03-29 21:55:00,51.6,49.4,30.10,NNW,346,0.0,0.0,92,0.00,,,0.02,Wunderground v.1.15,2013-03-30 04:55:00,
2013-03-29 22:05:00,51.3,49.1,30.10,NNW,346,0.0,0.0,92,0.00,,,0.02,Wunderground v.1.15,2013-03-30 05:05:00,
2013-03-29 22:10:00,51.1,48.9,30.10,NNW,346,0.0,0.0,92,0.00,,,0.02,Wunderground v.1.15,2013-03-30 05:10:00,
2013-03-29 22:21:00,50.6,48.7,30.10,NNW,346,0.0,0.0,93,0.00,,,0.02,Wunderground v.1.15,2013-03-30 05:21:00,
2013-03-29 22:30:00,50.3,48.6,30.10,NNW,346,0.0,0.0,94,0.00,,,0.02,Wunderground v.1.15,2013-03-30 05:30:00,
2013-03-29 22:35:00,50.1,48.4,30.10,NNW,346,0.0,0.0,94,0.00,,,0.02,Wunderground v.1.15,2013-03-30 05:35:00,
2013-03-29 22:45:00,49.7,48.0,30.10,NNW,346,0.0,0.0,94,0.00,,,0.02,Wunderground v.1.15,2013-03-30 05:45:00,
2013-03-29 22:55:00,49.3,47.6,30.10,NNW,346,0.0,0.0,94,0.00,,,0.02,Wunderground v.1.15,2013-03-30 05:55:00,
2013-03-29 23:05:00,49.0,47.3,30.10,ENE,57,0.0,0.0,94,0.00,,,0.02,Wunderground v.1.15,2013-03-30 06:05:00,
2013-03-29 23:15:00,48.7,47.3,30.10,ENE,57,0.0,0.0,95,0.00,,,0.02,Wunderground v.1.15,2013-03-30 06:15:00,
2013-03-29 23:25:00,48.5,47.1,30.09,ENE,57,0.0,0.0,95,0.00,,,0.02,Wunderground v.1.15,2013-03-30 06:25:00,
2013-03-29 23:35:00,48.3,47.2,30.09,ENE,57,0.0,0.0,96,0.00,,,0.02,Wunderground v.1.15,2013-03-30 06:35:00,
2013-03-29 23:45:00,47.8,46.7,30.09,NNW,342,0.0,0.0,96,0.00,,,0.02,Wunderground v.1.15,2013-03-30 06:45:00,
2013-03-29 23:55:00,47.4,46.3,30.09,NNW,342,0.0,0.0,96,0.00,,,0.02,Wunderground v.1.15,2013-03-30 06:55:00,